• Join FlightAware (Why Join?)
  • Login
  • US Flag 
05:05PM EDT


 

Airport Tracker/Info


-or-


 

Live Flight TrackerFlight Track Log ✈ ANE8022 ✈ 16-Apr-2013 ✈ LEMD / MAD - LEMG / AGP

Flight Track Log - Related Links

Times and Time Zones

All times are in EDT time to prevent confusion due to time zone crossing. See the ANE8022 flight status page for this flight to view local times or setup timezone preferences in your user account.

Time Position Orientation Groundspeed Altitude Reporting Facility
EDT Latitude Longitude Course Direction KTS MPH feet Rate Location/Type
05:01PM 39.9560 -3.7043 191° South  Level Estimated
05:02PM 39.9022 -3.7180 191° South  Level Estimated
05:03PM 39.8484 -3.7316 191° South  Level Estimated
05:04PM 39.7947 -3.7452 191° South  Level Estimated
05:05PM 39.7409 -3.7587 191° South  Level Estimated
05:06PM 39.6871 -3.7723 191° South  Level Estimated
05:07PM 39.6333 -3.7858 191° South  Level Estimated
05:08PM 39.5795 -3.7993 191° South  Level Estimated
05:09PM 39.5258 -3.8128 191° South  Level Estimated
05:10PM 39.4720 -3.8263 191° South  Level Estimated
05:11PM 39.4182 -3.8397 191° South  Level Estimated
05:12PM 39.3644 -3.8532 191° South  Level Estimated
05:13PM 39.3106 -3.8666 191° South  Level Estimated
05:14PM 39.2568 -3.8799 191° South  Level Estimated
05:15PM 39.2030 -3.8933 191° South  Level Estimated
05:16PM 39.1493 -3.9066 191° South  Level Estimated
05:17PM 39.0955 -3.9200 191° South  Level Estimated
05:18PM 39.0417 -3.9333 191° South  Level Estimated
05:19PM 38.9879 -3.9465 191° South  Level Estimated
05:20PM 38.9341 -3.9598 191° South  Level Estimated
05:21PM 38.8803 -3.9730 191° South  Level Estimated
05:22PM 38.8265 -3.9863 191° South  Level Estimated
05:23PM 38.7727 -3.9995 191° South  Level Estimated
05:24PM 38.7189 -4.0126 191° South  Level Estimated
05:25PM 38.6651 -4.0258 191° South  Level Estimated
05:26PM 38.6113 -4.0389 191° South  Level Estimated
05:27PM 38.5575 -4.0521 191° South  Level Estimated
05:28PM 38.5037 -4.0652 191° South  Level Estimated
05:29PM 38.4498 -4.0782 191° South  Level Estimated
05:30PM 38.3960 -4.0913 191° South  Level Estimated
05:31PM 38.3422 -4.1044 191° South  Level Estimated
05:32PM 38.2884 -4.1174 191° South  Level Estimated
05:33PM 38.2346 -4.1304 191° South  Level Estimated
05:34PM 38.1808 -4.1434 191° South  Level Estimated
05:35PM 38.1269 -4.1564 191° South  Level Estimated
05:36PM 38.0731 -4.1693 191° South  Level Estimated
05:37PM 38.0193 -4.1822 191° South  Level Estimated
05:38PM 37.9655 -4.1951 191° South  Level Estimated
05:39PM 37.9117 -4.2080 191° South  Level Estimated
05:40PM 37.8578 -4.2209 191° South  Level Estimated
05:41PM 37.8040 -4.2337 191° South  Level Estimated
05:42PM 37.7502 -4.2466 191° South  Level Estimated
05:43PM 37.6964 -4.2594 191° South  Level Estimated
05:44PM 37.6425 -4.2722 191° South  Level Estimated
05:45PM 37.5887 -4.2850 191° South  Level Estimated
05:46PM 37.5349 -4.2977 191° South  Level Estimated
05:47PM 37.4810 -4.3105 191° South  Level Estimated
05:48PM 37.4272 -4.3232 191° South  Level Estimated
05:49PM 37.3733 -4.3359 191° South  Level Estimated
05:50PM 37.3195 -4.3486 191° South  Level Estimated
05:51PM 37.2657 -4.3613 191° South  Level Estimated
05:52PM 37.2118 -4.3739 191° South  Level Estimated
05:53PM 37.1580 -4.3866 191° South  Level Estimated
05:54PM 37.1041 -4.3992 191° South  Level Estimated
05:55PM 37.0503 -4.4118 191° South  Level Estimated
05:56PM 36.9964 -4.4244 191° South  Level Estimated
05:57PM 36.9426 -4.4369 191° South  Level Estimated
05:58PM 36.8887 -4.4495 191° South  Level Estimated
05:59PM 36.8349 -4.4620 191° South  Level Estimated
06:00PM 36.7810 -4.4745 191° South  Level Estimated
06:01PM 36.7272 -4.4870 191° South  Level Estimated
06:02PM 36.6749 -4.4991 191° South  Level Estimated
06:03PM 36.6749 -4.4991 90° East  Level Estimated
06:04PM 36.6749 -4.4991 90° East  Level Estimated
06:05PM 36.6749 -4.4991 90° East  Level Estimated
06:06PM 36.6749 -4.4991 90° East  Level Estimated
06:07PM 36.6749 -4.4991 90° East  Level Estimated
06:08PM 36.6749 -4.4991 90° East  Level Estimated
06:09PM 36.6749 -4.4991 90° East  Level Estimated